Flight Track Log - Related Links

Times and Time Zones

All times are in EDT time to prevent confusion due to time zone crossing. See the EGF4383 flight status page for this flight to view local times or setup timezone preferences in your user account.

Time Position Orientation Groundspeed Altitude Reporting Facility
EDT Latitude Longitude Course Direction KTS MPH feet Rate Location/Type
Tue 06:17:48 PM 38.1833 -78.4333 294° West 180 207 2,600  Level Potomac TRACON
Tue 06:18:33 PM 38.2139 -78.4617 324° Northwest 198 228 4,200 2,171 Climbing Washington Center
Tue 06:19:00 PM 38.2502 -78.7839 299° West  Level FlightAware Approximate
Tue 06:19:33 PM 38.2331 -78.5417 287° West 210 242 6,400  Level Washington Center
Tue 06:20:00 PM 38.2968 -78.8926 299° West  Level FlightAware Approximate
Tue 06:20:33 PM 38.2603 -78.6169 295° West 246 283 9,100  Level Washington Center
Tue 06:21:00 PM 38.3426 -79.0020 298° West  Level FlightAware Approximate
Tue 06:21:33 PM 38.2894 -78.7000 294° West 257 296 11,100  Level Washington Center
Tue 06:22:00 PM 38.3876 -79.1120 294° West  Level FlightAware Approximate
Tue 06:22:33 PM 38.3244 -78.7994 294° West 276 318 12,800  Level Washington Center
Tue 06:23:00 PM 38.4276 -79.2251 294° West  Level FlightAware Approximate
Tue 06:23:33 PM 38.3633 -78.9044 295° West 308 354 14,300  Level Washington Center
Tue 06:24:33 PM 38.4056 -79.0308 293° West 339 390 16,000 1,650 Climbing Washington Center
Tue 06:25:33 PM 38.4461 -79.1442 295° West 352 405 17,600 1,550 Climbing Washington Center
Tue 06:26:33 PM 38.4861 -79.2628 293° West 358 412 19,100 1,350 Climbing Washington Center
Tue 06:27:33 PM 38.5225 -79.3681 294° West 363 418 20,300 1,200 Climbing Washington Center
Tue 06:28:33 PM 38.5664 -79.4950 294° West 370 426 21,500 850 Climbing Washington Center
Tue 06:29:33 PM 38.6122 -79.6250 294° West 388 447 22,000 250 Climbing Washington Center
Tue 06:30:33 PM 38.6633 -79.7742 294° West 407 468 22,000  Level Washington Center
Tue 06:31:33 PM 38.7086 -79.9097 293° West 412 474 22,000  Level Washington Center
Tue 06:33:53 PM 38.8106 -80.2106 294° West 418 481 22,000  Level Indianapolis Center
Tue 06:34:55 PM 38.8572 -80.3469 294° West 417 480 22,000  Level Indianapolis Center
Tue 06:35:57 PM 38.9022 -80.4839 293° West 417 480 22,000 194 Level Indianapolis Center
Tue 06:36:59 PM 38.9569 -80.6472 293° West 418 481 22,400 484 Climbing Indianapolis Center
Tue 06:38:01 PM 39.0108 -80.7756 298° West 412 474 23,000 290 Climbing Indianapolis Center
Tue 06:39:03 PM 39.0753 -80.8986 304° West 416 479 23,000  Level Indianapolis Center
Tue 06:40:05 PM 39.1439 -81.0225 306° West 424 488 23,000  Level Indianapolis Center
Tue 06:41:07 PM 39.2128 -81.1486 305° West 430 495 23,000 48 Level Indianapolis Center
Tue 06:42:09 PM 39.2808 -81.2744 305° West 431 496 23,100 1,065 Climbing Indianapolis Center
Tue 06:43:11 PM 39.3608 -81.4183 306° West 413 475 25,200 1,403 Climbing Indianapolis Center
Tue 06:44:13 PM 39.4250 -81.5319 306° West 397 457 26,000 387 Climbing Indianapolis Center
Tue 06:45:15 PM 39.4850 -81.6561 302° West 408 470 26,000  Level Indianapolis Center
Tue 06:46:17 PM 39.5411 -81.7844 300° West 411 473 26,000  Level Indianapolis Center
Tue 06:47:19 PM 39.5997 -81.9153 300° West 419 482 26,000  Level Indianapolis Center
Tue 06:48:21 PM 39.6581 -82.0475 300° West 422 486 26,000 242 Level Indianapolis Center
Tue 06:49:23 PM 39.7244 -82.1992 300° West 418 481 26,500 919 Climbing Indianapolis Center
Tue 06:50:25 PM 39.7800 -82.3219 301° West 394 453 27,900 726 Climbing Indianapolis Center
Tue 06:51:27 PM 39.8331 -82.4467 299° West 392 451 28,000 290 Climbing Indianapolis Center
Tue 06:52:29 PM 39.8897 -82.5731 300° West 400 460 28,500 488 Climbing Indianapolis Center
Tue 06:53:30 PM 39.9436 -82.7000 299° West 397 457 29,000 244 Climbing Indianapolis Center
Tue 06:54:32 PM 40.0069 -82.8467 299° West 398 458 29,000  Level Indianapolis Center
Tue 06:55:34 PM 40.0608 -82.9700 300° West 391 450 29,000 339 Level Indianapolis Center
Tue 06:56:36 PM 40.1133 -83.0919 299° West 385 443 29,700 484 Climbing Indianapolis Center
Tue 06:57:38 PM 40.1633 -83.2111 299° West 375 432 30,000 145 Climbing Indianapolis Center
Tue 06:58:40 PM 40.2156 -83.3331 299° West 382 440 30,000  Level Indianapolis Center
Tue 06:59:42 PM 40.2683 -83.4572 299° West 388 447 30,000  Level Indianapolis Center
Tue 07:00:44 PM 40.3294 -83.6044 299° West 392 451 30,000  Level Indianapolis Center
Tue 07:01:46 PM 40.3839 -83.7311 299° West 395 455 30,000  Level Indianapolis Center
Tue 07:02:48 PM 40.4372 -83.8592 299° West 397 457 30,000  Level Indianapolis Center
Tue 07:03:50 PM 40.4906 -83.9872 299° West 398 458 30,000  Level Indianapolis Center
Tue 07:04:52 PM 40.5439 -84.1153 299° West 397 457 30,000  Level Indianapolis Center
Tue 07:05:54 PM 40.5969 -84.2439 299° West 396 456 30,000  Level Indianapolis Center
Tue 07:06:55 PM 40.6503 -84.3725 299° West 398 458 30,000  Level Indianapolis Center
Tue 07:07:57 PM 40.7119 -84.5233 298° West 398 458 30,000  Level Indianapolis Center
Tue 07:09:03 PM 40.7642 -84.6539 298° West 398 458 30,000  Level Chicago Center
Tue 07:10:05 PM 40.8169 -84.7814 299° West 396 456 30,000  Level Chicago Center
Tue 07:11:07 PM 40.8703 -84.9106 299° West 399 459 30,000  Level Chicago Center
Tue 07:12:09 PM 40.9253 -85.0378 300° West 399 459 30,000  Level Chicago Center
Tue 07:13:12 PM 40.9897 -85.1892 299° West 395 455 30,000  Level Chicago Center
Tue 07:14:13 PM 41.0419 -85.3133 299° West 389 448 30,000  Level Chicago Center
Tue 07:15:15 PM 41.0939 -85.4369 299° West 383 441 30,000 -677 Level Chicago Center
Tue 07:16:17 PM 41.1461 -85.5600 299° West 381 438 28,600 -1,839 Descending Chicago Center
Tue 07:17:19 PM 41.1964 -85.6797 299° West 372 428 26,200 -1,742 Descending Chicago Center
Tue 07:18:21 PM 41.2403 -85.7869 299° West 332 382 25,000 -581 Descending Chicago Center
Tue 07:19:23 PM 41.2719 -85.8917 292° West 311 358 25,000 -336 Level Chicago Center
Tue 07:20:26 PM 41.2822 -86.0225 276° West 298 343 24,300 -912 Descending Chicago Center
Tue 07:21:28 PM 41.2942 -86.1417 278° West 321 369 23,100 -1,113 Descending Chicago Center
Tue 07:22:30 PM 41.3097 -86.2650 280° West 334 384 22,000 -774 Descending Chicago Center
Tue 07:23:32 PM 41.3319 -86.3803 284° West 332 382 21,500 -1,065 Descending Chicago Center
Tue 07:24:34 PM 41.3989 -86.4689 315° West 342 394 19,800 -2,098 Descending Chicago Center
Tue 07:25:35 PM 41.4667 -86.5517 318° Northwest 333 383 17,200 -2,683 Descending Chicago Center
Tue 07:26:37 PM 41.5333 -86.6375 316° Northwest 332 382 14,300 -2,419 Descending Chicago Center
Tue 07:27:39 PM 41.6192 -86.7469 316° Northwest 347 399 12,200 -1,113 Descending Chicago Center
Tue 07:28:41 PM 41.7092 -86.8061 334° Northwest 381 438 12,000 -97 Descending Chicago Center
Tue 07:29:43 PM 41.8158 -86.8197 355° North 388 447 12,000 -145 Level Chicago Center
Tue 07:30:45 PM 41.8939 -86.8800 330° Northwest 353 406 11,700 -677 Descending Chicago Center
Tue 07:31:47 PM 41.9322 -86.9911 295° West 334 384 10,600 -823 Descending Chicago Center
Tue 07:32:49 PM 41.9742 -87.1214 293° West 321 369 10,000 -581 Descending Chicago Center
Tue 07:33:51 PM 41.9658 -87.2122 263° West 255 293 9,400 -823 Descending Chicago Center
Tue 07:34:53 PM 41.9694 -87.3056 273° West 249 287 8,300 -1,024 Descending Chicago Center
Tue 07:35:54 PM 41.9689 -87.3986 270° West 251 289 7,300 -935 Descending Chicago Center
Tue 07:36:10 PM 41.9667 -87.4333 265° West 256 295 7,100 -711 Descending Chicago TRACON
Tue 07:37:10 PM 41.9667 -87.5333 270° West 257 296 6,400 -1,100 Descending Chicago TRACON
Tue 07:38:10 PM 41.9667 -87.6167 270° West 254 292 4,900 -1,500 Descending Chicago TRACON
Tue 07:39:10 PM 41.9667 -87.7000 270° West 203 234 3,400 -1,500 Descending Chicago TRACON

Login

Don't have an account? Register now (free) for customized features, flight alerts, and more!